sensor_id;sensor_type;location;lat;lon;timestamp;pressure;altitude;pressure_sealevel;temperature;humidity
62402;BME280;48440;51.224;22.506;2023-04-23T00:00:33;98986.78;;;11.60;55.02
62402;BME280;48440;51.224;22.506;2023-04-23T00:03:05;98981.88;;;11.56;55.92
62402;BME280;48440;51.224;22.506;2023-04-23T00:05:34;98980.78;;;11.57;56.10
62402;BME280;48440;51.224;22.506;2023-04-23T00:08:01;98985.13;;;11.53;56.28
62402;BME280;48440;51.224;22.506;2023-04-23T00:10:28;98980.75;;;11.47;56.57
62402;BME280;48440;51.224;22.506;2023-04-23T00:12:54;98979.41;;;11.50;56.73
62402;BME280;48440;51.224;22.506;2023-04-23T00:15:20;98975.03;;;11.44;56.41
62402;BME280;48440;51.224;22.506;2023-04-23T00:17:47;98981.84;;;11.36;56.86
62402;BME280;48440;51.224;22.506;2023-04-23T00:20:14;98973.38;;;11.28;57.48
62402;BME280;48440;51.224;22.506;2023-04-23T00:22:41;98975.53;;;11.26;57.91
62402;BME280;48440;51.224;22.506;2023-04-23T00:25:08;98976.06;;;11.22;57.44
62402;BME280;48440;51.224;22.506;2023-04-23T00:27:34;98979.59;;;11.18;57.46
62402;BME280;48440;51.224;22.506;2023-04-23T00:30:00;98972.00;;;11.20;57.60
62402;BME280;48440;51.224;22.506;2023-04-23T00:32:27;98974.44;;;11.21;56.82
62402;BME280;48440;51.224;22.506;2023-04-23T00:34:53;98969.56;;;11.23;56.90
62402;BME280;48440;51.224;22.506;2023-04-23T00:37:21;98970.91;;;11.16;57.65
62402;BME280;48440;51.224;22.506;2023-04-23T00:39:47;98969.00;;;11.11;58.03
62402;BME280;48440;51.224;22.506;2023-04-23T00:42:13;98965.47;;;11.11;57.83
62402;BME280;48440;51.224;22.506;2023-04-23T00:44:41;98966.81;;;11.08;57.69
62402;BME280;48440;51.224;22.506;2023-04-23T00:47:08;98967.34;;;11.05;57.70
62402;BME280;48440;51.224;22.506;2023-04-23T00:49:34;98964.56;;;10.95;57.95
62402;BME280;48440;51.224;22.506;2023-04-23T00:52:00;98963.78;;;11.00;58.32
62402;BME280;48440;51.224;22.506;2023-04-23T00:54:26;98964.31;;;11.02;58.01
62402;BME280;48440;51.224;22.506;2023-04-23T00:56:54;98960.78;;;10.96;58.29
62402;BME280;48440;51.224;22.506;2023-04-23T00:59:20;98966.19;;;10.91;58.89
62402;BME280;48440;51.224;22.506;2023-04-23T01:01:47;98967.22;;;10.80;59.22
62402;BME280;48440;51.224;22.506;2023-04-23T01:04:15;98968.00;;;10.75;59.30
62402;BME280;48440;51.224;22.506;2023-04-23T01:06:42;98971.53;;;10.76;59.29
62402;BME280;48440;51.224;22.506;2023-04-23T01:09:08;98975.59;;;10.73;59.15
62402;BME280;48440;51.224;22.506;2023-04-23T01:11:38;98969.31;;;10.63;59.58
62402;BME280;48440;51.224;22.506;2023-04-23T01:14:07;98966.88;;;10.66;59.54
62402;BME280;48440;51.224;22.506;2023-04-23T01:16:33;98963.06;;;10.62;59.47
62402;BME280;48440;51.224;22.506;2023-04-23T01:18:59;98958.47;;;10.63;59.24
62402;BME280;48440;51.224;22.506;2023-04-23T01:21:28;98963.31;;;10.61;59.34
62402;BME280;48440;51.224;22.506;2023-04-23T01:23:54;98955.69;;;10.52;59.77
62402;BME280;48440;51.224;22.506;2023-04-23T01:26:21;98983.88;;;10.51;59.20
62402;BME280;48440;51.224;22.506;2023-04-23T01:28:48;98969.47;;;10.46;58.86
62402;BME280;48440;51.224;22.506;2023-04-23T01:31:18;98965.91;;;10.40;59.45
62402;BME280;48440;51.224;22.506;2023-04-23T01:33:49;98975.13;;;10.39;59.14
62402;BME280;48440;51.224;22.506;2023-04-23T01:39:15;98968.34;;;10.42;58.44
62402;BME280;48440;51.224;22.506;2023-04-23T01:41:45;98974.84;;;10.41;58.74
62402;BME280;48440;51.224;22.506;2023-04-23T01:44:12;98964.06;;;10.51;58.51
62402;BME280;48440;51.224;22.506;2023-04-23T01:46:49;98970.25;;;10.41;58.67
62402;BME280;48440;51.224;22.506;2023-04-23T01:49:21;98966.19;;;10.39;58.37
62402;BME280;48440;51.224;22.506;2023-04-23T01:51:50;98963.47;;;10.44;58.21
62402;BME280;48440;51.224;22.506;2023-04-23T01:54:21;98972.94;;;10.41;58.32
62402;BME280;48440;51.224;22.506;2023-04-23T01:56:57;98969.13;;;10.32;58.53
62402;BME280;48440;51.224;22.506;2023-04-23T01:59:23;98971.81;;;10.32;58.24
62402;BME280;48440;51.224;22.506;2023-04-23T02:01:53;98973.97;;;10.30;58.65
62402;BME280;48440;51.224;22.506;2023-04-23T02:04:20;98966.09;;;10.29;58.56
62402;BME280;48440;51.224;22.506;2023-04-23T02:06:54;98967.47;;;10.31;58.02
62402;BME280;48440;51.224;22.506;2023-04-23T02:09:20;98964.78;;;10.31;58.11
62402;BME280;48440;51.224;22.506;2023-04-23T02:11:52;98961.53;;;10.34;58.63
62402;BME280;48440;51.224;22.506;2023-04-23T02:14:18;98967.19;;;10.28;58.58
62402;BME280;48440;51.224;22.506;2023-04-23T02:16:44;98963.41;;;10.29;58.48
62402;BME280;48440;51.224;22.506;2023-04-23T02:19:12;98965.81;;;10.25;58.14
62402;BME280;48440;51.224;22.506;2023-04-23T02:21:41;98961.41;;;10.19;58.57
62402;BME280;48440;51.224;22.506;2023-04-23T02:24:08;98961.34;;;10.14;58.66
62402;BME280;48440;51.224;22.506;2023-04-23T02:26:34;98967.56;;;10.09;58.91
62402;BME280;48440;51.224;22.506;2023-04-23T02:29:00;98957.25;;;10.06;58.77
62402;BME280;48440;51.224;22.506;2023-04-23T02:31:26;98961.88;;;10.11;58.66
62402;BME280;48440;51.224;22.506;2023-04-23T02:33:52;98965.69;;;10.10;58.08
62402;BME280;48440;51.224;22.506;2023-04-23T02:36:18;98967.88;;;10.13;58.11
62402;BME280;48440;51.224;22.506;2023-04-23T02:38:44;98960.53;;;10.13;57.58
62402;BME280;48440;51.224;22.506;2023-04-23T02:41:12;98962.41;;;10.08;58.44
62402;BME280;48440;51.224;22.506;2023-04-23T02:43:38;98959.19;;;10.11;58.26
62402;BME280;48440;51.224;22.506;2023-04-23T02:46:04;98959.94;;;10.06;58.25
62402;BME280;48440;51.224;22.506;2023-04-23T02:48:38;98958.06;;;10.07;58.91
62402;BME280;48440;51.224;22.506;2023-04-23T02:51:09;98953.44;;;10.07;59.00
62402;BME280;48440;51.224;22.506;2023-04-23T02:53:36;98955.84;;;10.04;59.10
62402;BME280;48440;51.224;22.506;2023-04-23T02:56:07;98960.63;;;9.92;58.97
62402;BME280;48440;51.224;22.506;2023-04-23T02:58:35;98959.91;;;10.01;59.04
62402;BME280;48440;51.224;22.506;2023-04-23T03:01:04;98966.66;;;9.99;58.49
62402;BME280;48440;51.224;22.506;2023-04-23T03:03:30;98965.78;;;9.93;59.52
62402;BME280;48440;51.224;22.506;2023-04-23T03:05:56;98960.06;;;9.90;59.70
62402;BME280;48440;51.224;22.506;2023-04-23T03:08:23;98966.56;;;9.88;59.19
62402;BME280;48440;51.224;22.506;2023-04-23T03:10:49;98960.88;;;9.90;59.45
62402;BME280;48440;51.224;22.506;2023-04-23T03:13:16;98964.41;;;9.91;59.70
62402;BME280;48440;51.224;22.506;2023-04-23T03:15:47;98968.50;;;9.93;59.49
62402;BME280;48440;51.224;22.506;2023-04-23T03:18:16;98963.84;;;9.88;59.50
62402;BME280;48440;51.224;22.506;2023-04-23T03:20:46;98963.22;;;9.76;60.09
62402;BME280;48440;51.224;22.506;2023-04-23T03:23:18;98965.81;;;9.66;60.26
62402;BME280;48440;51.224;22.506;2023-04-23T03:25:44;98966.63;;;9.67;60.56
62402;BME280;48440;51.224;22.506;2023-04-23T03:28:10;98964.94;;;9.56;60.61
62402;BME280;48440;51.224;22.506;2023-04-23T03:30:42;98964.38;;;9.53;60.64
62402;BME280;48440;51.224;22.506;2023-04-23T03:33:11;98968.66;;;9.49;61.02
62402;BME280;48440;51.224;22.506;2023-04-23T03:35:45;98965.63;;;9.46;60.89
62402;BME280;48440;51.224;22.506;2023-04-23T03:38:12;98967.47;;;9.40;61.27
62402;BME280;48440;51.224;22.506;2023-04-23T03:40:41;98963.22;;;9.49;61.45
62402;BME280;48440;51.224;22.506;2023-04-23T03:43:10;98962.41;;;9.49;61.13
62402;BME280;48440;51.224;22.506;2023-04-23T03:45:36;98961.84;;;9.47;61.61
62402;BME280;48440;51.224;22.506;2023-04-23T03:48:02;98975.75;;;9.56;61.53
62402;BME280;48440;51.224;22.506;2023-04-23T03:50:28;98963.13;;;9.66;61.13
62402;BME280;48440;51.224;22.506;2023-04-23T03:52:54;98967.69;;;9.61;61.08
62402;BME280;48440;51.224;22.506;2023-04-23T03:55:20;98971.25;;;9.66;61.51
62402;BME280;48440;51.224;22.506;2023-04-23T03:57:48;98968.78;;;9.65;61.32
62402;BME280;48440;51.224;22.506;2023-04-23T04:00:20;98970.41;;;9.61;61.25
62402;BME280;48440;51.224;22.506;2023-04-23T04:02:50;98973.38;;;9.64;61.27
62402;BME280;48440;51.224;22.506;2023-04-23T04:05:16;98965.75;;;9.56;61.85
62402;BME280;48440;51.224;22.506;2023-04-23T04:07:42;98976.31;;;9.58;61.63
62402;BME280;48440;51.224;22.506;2023-04-23T04:10:08;98974.72;;;9.62;61.17
62402;BME280;48440;51.224;22.506;2023-04-23T04:12:36;98968.53;;;9.66;61.57
62402;BME280;48440;51.224;22.506;2023-04-23T04:15:02;98970.41;;;9.66;61.94
62402;BME280;48440;51.224;22.506;2023-04-23T04:17:31;98968.06;;;9.74;61.58
62402;BME280;48440;51.224;22.506;2023-04-23T04:19:56;98972.16;;;9.77;61.44
62402;BME280;48440;51.224;22.506;2023-04-23T04:22:22;98973.84;;;9.83;61.44
62402;BME280;48440;51.224;22.506;2023-04-23T04:24:48;98972.53;;;9.85;61.32
62402;BME280;48440;51.224;22.506;2023-04-23T04:27:19;98972.28;;;9.92;60.88
62402;BME280;48440;51.224;22.506;2023-04-23T04:29:45;98972.91;;;9.99;60.70
62402;BME280;48440;51.224;22.506;2023-04-23T04:32:13;98973.72;;;10.00;61.05
62402;BME280;48440;51.224;22.506;2023-04-23T04:34:41;98976.25;;;10.11;61.24
62402;BME280;48440;51.224;22.506;2023-04-23T04:37:09;98975.19;;;10.12;60.36
62402;BME280;48440;51.224;22.506;2023-04-23T04:39:36;98976.84;;;10.18;60.25
62402;BME280;48440;51.224;22.506;2023-04-23T04:42:03;98982.63;;;10.27;60.05
62402;BME280;48440;51.224;22.506;2023-04-23T04:44:31;98975.66;;;10.36;59.82
62402;BME280;48440;51.224;22.506;2023-04-23T04:47:02;98976.56;;;10.52;58.93
62402;BME280;48440;51.224;22.506;2023-04-23T04:49:29;98978.31;;;10.73;59.21
62402;BME280;48440;51.224;22.506;2023-04-23T04:51:55;98976.25;;;10.96;58.48
62402;BME280;48440;51.224;22.506;2023-04-23T04:54:24;98976.06;;;11.17;57.91
62402;BME280;48440;51.224;22.506;2023-04-23T04:56:53;98973.13;;;11.34;57.65
62402;BME280;48440;51.224;22.506;2023-04-23T04:59:19;98972.06;;;11.45;56.80
62402;BME280;48440;51.224;22.506;2023-04-23T05:01:45;98976.72;;;11.70;56.02
62402;BME280;48440;51.224;22.506;2023-04-23T05:04:20;98968.94;;;11.94;54.01
62402;BME280;48440;51.224;22.506;2023-04-23T05:06:49;98970.53;;;12.05;54.52
62402;BME280;48440;51.224;22.506;2023-04-23T05:09:18;98966.47;;;12.18;54.24
62402;BME280;48440;51.224;22.506;2023-04-23T05:11:45;98967.00;;;12.35;52.77
62402;BME280;48440;51.224;22.506;2023-04-23T05:14:14;98969.13;;;12.53;52.52
62402;BME280;48440;51.224;22.506;2023-04-23T05:16:46;98966.38;;;12.69;52.50
62402;BME280;48440;51.224;22.506;2023-04-23T05:19:23;98964.94;;;12.91;51.75
62402;BME280;48440;51.224;22.506;2023-04-23T05:21:53;98954.25;;;13.05;51.84
62402;BME280;48440;51.224;22.506;2023-04-23T05:24:29;98959.13;;;13.23;50.23
62402;BME280;48440;51.224;22.506;2023-04-23T05:27:14;98955.75;;;13.42;49.04
62402;BME280;48440;51.224;22.506;2023-04-23T05:29:42;98959.66;;;13.70;48.68
62402;BME280;48440;51.224;22.506;2023-04-23T05:32:22;98956.78;;;13.90;47.96
62402;BME280;48440;51.224;22.506;2023-04-23T05:34:55;98958.78;;;14.13;47.57
62402;BME280;48440;51.224;22.506;2023-04-23T05:37:26;98959.94;;;14.36;47.72
62402;BME280;48440;51.224;22.506;2023-04-23T05:39:53;98960.66;;;14.52;47.67
62402;BME280;48440;51.224;22.506;2023-04-23T05:42:20;98961.09;;;14.83;47.35
62402;BME280;48440;51.224;22.506;2023-04-23T05:44:46;98961.91;;;15.07;45.94
62402;BME280;48440;51.224;22.506;2023-04-23T05:47:13;98959.28;;;15.21;45.38
62402;BME280;48440;51.224;22.506;2023-04-23T05:49:39;98959.06;;;15.36;44.78
62402;BME280;48440;51.224;22.506;2023-04-23T05:52:08;98960.19;;;15.59;44.09
62402;BME280;48440;51.224;22.506;2023-04-23T05:54:33;98960.91;;;15.65;43.53
62402;BME280;48440;51.224;22.506;2023-04-23T05:56:59;98957.72;;;15.76;42.84
62402;BME280;48440;51.224;22.506;2023-04-23T05:59:26;98969.16;;;15.97;43.32
62402;BME280;48440;51.224;22.506;2023-04-23T06:01:54;98965.69;;;15.91;40.81
62402;BME280;48440;51.224;22.506;2023-04-23T06:04:21;98967.09;;;16.08;41.92
62402;BME280;48440;51.224;22.506;2023-04-23T06:06:47;98959.72;;;16.22;41.17
62402;BME280;48440;51.224;22.506;2023-04-23T06:09:17;98961.34;;;16.23;40.36
62402;BME280;48440;51.224;22.506;2023-04-23T06:11:42;98962.50;;;16.36;40.31
62402;BME280;48440;51.224;22.506;2023-04-23T06:14:09;98964.59;;;16.57;40.06
62402;BME280;48440;51.224;22.506;2023-04-23T06:16:35;98962.13;;;16.88;40.47
62402;BME280;48440;51.224;22.506;2023-04-23T06:19:08;98952.84;;;16.98;40.22
62402;BME280;48440;51.224;22.506;2023-04-23T06:21:34;98957.09;;;17.18;39.71
62402;BME280;48440;51.224;22.506;2023-04-23T06:24:20;98956.16;;;17.50;39.39
62402;BME280;48440;51.224;22.506;2023-04-23T06:26:47;98951.38;;;17.55;38.68
62402;BME280;48440;51.224;22.506;2023-04-23T06:29:15;98964.25;;;17.69;38.30
62402;BME280;48440;51.224;22.506;2023-04-23T06:31:41;98957.03;;;17.59;38.31
62402;BME280;48440;51.224;22.506;2023-04-23T06:34:07;98950.25;;;17.92;38.66
62402;BME280;48440;51.224;22.506;2023-04-23T06:36:35;98943.03;;;18.19;37.44
62402;BME280;48440;51.224;22.506;2023-04-23T06:39:01;98958.03;;;17.99;36.65
62402;BME280;48440;51.224;22.506;2023-04-23T06:41:34;98959.63;;;18.14;35.91
62402;BME280;48440;51.224;22.506;2023-04-23T06:51:02;98961.22;;;18.59;35.84
62402;BME280;48440;51.224;22.506;2023-04-23T06:57:03;98956.41;;;18.74;34.82
62402;BME280;48440;51.224;22.506;2023-04-23T06:59:42;98946.38;;;19.09;35.75
62402;BME280;48440;51.224;22.506;2023-04-23T07:02:22;98945.16;;;19.41;35.44
62402;BME280;48440;51.224;22.506;2023-04-23T07:05:02;98952.13;;;19.47;33.49
62402;BME280;48440;51.224;22.506;2023-04-23T07:08:10;98941.03;;;19.69;34.30
62402;BME280;48440;51.224;22.506;2023-04-23T07:13:56;98936.47;;;20.16;32.69
62402;BME280;48440;51.224;22.506;2023-04-23T07:17:11;98937.72;;;20.45;33.11
62402;BME280;48440;51.224;22.506;2023-04-23T07:24:06;98931.53;;;20.94;32.82
62402;BME280;48440;51.224;22.506;2023-04-23T07:27:06;98928.97;;;21.19;31.39
62402;BME280;48440;51.224;22.506;2023-04-23T07:30:03;98935.94;;;21.25;29.78
62402;BME280;48440;51.224;22.506;2023-04-23T07:36:24;98926.53;;;20.50;29.96
62402;BME280;48440;51.224;22.506;2023-04-23T07:38:58;98932.78;;;20.67;30.09
62402;BME280;48440;51.224;22.506;2023-04-23T07:41:27;98936.53;;;20.54;29.41
62402;BME280;48440;51.224;22.506;2023-04-23T07:44:00;98938.16;;;20.55;30.70
62402;BME280;48440;51.224;22.506;2023-04-23T07:46:46;98936.75;;;20.32;29.08
62402;BME280;48440;51.224;22.506;2023-04-23T07:49:25;98923.78;;;20.41;30.49
62402;BME280;48440;51.224;22.506;2023-04-23T07:52:00;98937.16;;;20.69;29.98
62402;BME280;48440;51.224;22.506;2023-04-23T07:54:26;98932.66;;;20.55;28.41
62402;BME280;48440;51.224;22.506;2023-04-23T07:56:51;98931.09;;;20.11;28.93
62402;BME280;48440;51.224;22.506;2023-04-23T07:59:17;98936.63;;;20.11;28.64
62402;BME280;48440;51.224;22.506;2023-04-23T08:01:42;98929.03;;;19.99;28.90
62402;BME280;48440;51.224;22.506;2023-04-23T08:04:08;98927.06;;;20.09;29.13
62402;BME280;48440;51.224;22.506;2023-04-23T08:06:33;98930.97;;;19.99;28.38
62402;BME280;48440;51.224;22.506;2023-04-23T08:08:59;98928.31;;;20.28;29.37
62402;BME280;48440;51.224;22.506;2023-04-23T08:11:25;98924.78;;;20.19;29.02
62402;BME280;48440;51.224;22.506;2023-04-23T08:13:53;98914.84;;;20.36;29.11
62402;BME280;48440;51.224;22.506;2023-04-23T08:16:19;98931.41;;;20.44;29.05
62402;BME280;48440;51.224;22.506;2023-04-23T08:18:45;98921.63;;;20.55;29.55
62402;BME280;48440;51.224;22.506;2023-04-23T08:21:10;98921.94;;;20.54;29.33
62402;BME280;48440;51.224;22.506;2023-04-23T08:23:37;98922.31;;;20.90;29.55
62402;BME280;48440;51.224;22.506;2023-04-23T08:26:02;98916.44;;;21.00;29.97
62402;BME280;48440;51.224;22.506;2023-04-23T08:28:28;98919.31;;;21.04;28.50
62402;BME280;48440;51.224;22.506;2023-04-23T08:30:54;98912.38;;;20.98;29.34
62402;BME280;48440;51.224;22.506;2023-04-23T08:33:19;98915.16;;;21.27;29.30
62402;BME280;48440;51.224;22.506;2023-04-23T08:35:45;98914.47;;;21.01;28.15
62402;BME280;48440;51.224;22.506;2023-04-23T08:38:11;98912.38;;;20.98;27.77
62402;BME280;48440;51.224;22.506;2023-04-23T08:40:37;98907.56;;;21.16;28.56
62402;BME280;48440;51.224;22.506;2023-04-23T08:43:09;98919.25;;;21.21;27.65
62402;BME280;48440;51.224;22.506;2023-04-23T08:45:39;98913.72;;;21.21;27.95
62402;BME280;48440;51.224;22.506;2023-04-23T08:48:06;98909.94;;;21.55;27.83
62402;BME280;48440;51.224;22.506;2023-04-23T08:50:32;98899.94;;;21.63;27.97
62402;BME280;48440;51.224;22.506;2023-04-23T08:52:58;98900.56;;;21.68;27.07
62402;BME280;48440;51.224;22.506;2023-04-23T08:55:24;98903.78;;;21.71;26.58
62402;BME280;48440;51.224;22.506;2023-04-23T08:57:50;98904.00;;;21.65;25.42
62402;BME280;48440;51.224;22.506;2023-04-23T09:00:18;98904.81;;;21.66;25.92
62402;BME280;48440;51.224;22.506;2023-04-23T09:02:47;98912.41;;;21.48;27.19
62402;BME280;48440;51.224;22.506;2023-04-23T09:05:13;98895.06;;;21.48;27.29
62402;BME280;48440;51.224;22.506;2023-04-23T09:07:39;98897.31;;;21.66;27.20
62402;BME280;48440;51.224;22.506;2023-04-23T09:10:07;98899.13;;;21.21;26.82
62402;BME280;48440;51.224;22.506;2023-04-23T09:12:36;98895.72;;;21.15;28.53
62402;BME280;48440;51.224;22.506;2023-04-23T09:15:02;98913.41;;;21.14;28.69
62402;BME280;48440;51.224;22.506;2023-04-23T09:17:35;98894.38;;;21.00;27.57
62402;BME280;48440;51.224;22.506;2023-04-23T09:20:01;98900.06;;;20.95;27.80
62402;BME280;48440;51.224;22.506;2023-04-23T09:25:03;98890.69;;;21.17;28.89
62402;BME280;48440;51.224;22.506;2023-04-23T09:27:29;98887.84;;;21.55;29.60
62402;BME280;48440;51.224;22.506;2023-04-23T09:29:55;98897.84;;;21.60;29.31
62402;BME280;48440;51.224;22.506;2023-04-23T09:32:30;98889.78;;;21.76;28.61
62402;BME280;48440;51.224;22.506;2023-04-23T09:34:57;98885.31;;;21.83;28.12
62402;BME280;48440;51.224;22.506;2023-04-23T09:37:26;98878.00;;;21.66;27.43
62402;BME280;48440;51.224;22.506;2023-04-23T09:39:51;98885.25;;;21.92;28.30
62402;BME280;48440;51.224;22.506;2023-04-23T09:42:23;98883.75;;;21.94;27.00
62402;BME280;48440;51.224;22.506;2023-04-23T09:45:11;98886.47;;;21.61;27.84
62402;BME280;48440;51.224;22.506;2023-04-23T09:47:38;98880.25;;;21.52;28.53
62402;BME280;48440;51.224;22.506;2023-04-23T09:50:04;98881.53;;;21.55;28.51
62402;BME280;48440;51.224;22.506;2023-04-23T09:52:31;98873.44;;;21.50;27.67
62402;BME280;48440;51.224;22.506;2023-04-23T09:54:57;98873.63;;;21.24;27.65
62402;BME280;48440;51.224;22.506;2023-04-23T09:57:25;98869.59;;;21.42;27.79
62402;BME280;48440;51.224;22.506;2023-04-23T09:59:51;98855.44;;;21.64;28.62
62402;BME280;48440;51.224;22.506;2023-04-23T10:02:17;98862.88;;;21.52;27.88
62402;BME280;48440;51.224;22.506;2023-04-23T10:04:43;98851.75;;;21.60;28.56
62402;BME280;48440;51.224;22.506;2023-04-23T10:07:08;98849.19;;;21.76;29.78
62402;BME280;48440;51.224;22.506;2023-04-23T10:09:39;98842.97;;;21.79;29.38
62402;BME280;48440;51.224;22.506;2023-04-23T10:12:06;98832.03;;;21.83;29.15
62402;BME280;48440;51.224;22.506;2023-04-23T10:14:31;98838.38;;;22.04;29.86
62402;BME280;48440;51.224;22.506;2023-04-23T10:17:02;98834.28;;;21.68;29.26
62402;BME280;48440;51.224;22.506;2023-04-23T10:19:28;98832.84;;;22.04;30.11
62402;BME280;48440;51.224;22.506;2023-04-23T10:21:59;98823.22;;;22.22;29.79
62402;BME280;48440;51.224;22.506;2023-04-23T10:24:34;98826.09;;;22.26;28.39
62402;BME280;48440;51.224;22.506;2023-04-23T10:27:03;98822.44;;;22.34;29.37
62402;BME280;48440;51.224;22.506;2023-04-23T10:29:30;98821.94;;;22.08;28.08
62402;BME280;48440;51.224;22.506;2023-04-23T10:32:04;98814.03;;;21.97;28.75
62402;BME280;48440;51.224;22.506;2023-04-23T10:34:31;98814.50;;;21.99;29.31
62402;BME280;48440;51.224;22.506;2023-04-23T10:36:58;98814.13;;;21.89;29.50
62402;BME280;48440;51.224;22.506;2023-04-23T10:39:26;98810.66;;;21.80;29.83
62402;BME280;48440;51.224;22.506;2023-04-23T10:41:53;98811.00;;;21.57;31.03
62402;BME280;48440;51.224;22.506;2023-04-23T10:44:19;98810.56;;;21.55;29.78
62402;BME280;48440;51.224;22.506;2023-04-23T10:46:53;98804.97;;;21.43;29.59
62402;BME280;48440;51.224;22.506;2023-04-23T10:49:21;98803.22;;;21.39;28.84
62402;BME280;48440;51.224;22.506;2023-04-23T10:51:47;98800.66;;;21.54;30.06
62402;BME280;48440;51.224;22.506;2023-04-23T10:54:14;98796.88;;;21.59;28.58
62402;BME280;48440;51.224;22.506;2023-04-23T10:56:41;98802.81;;;21.49;28.11
62402;BME280;48440;51.224;22.506;2023-04-23T10:59:18;98799.47;;;21.43;27.73
62402;BME280;48440;51.224;22.506;2023-04-23T11:01:46;98794.44;;;21.24;27.35
62402;BME280;48440;51.224;22.506;2023-04-23T11:04:22;98791.47;;;21.29;27.83
62402;BME280;48440;51.224;22.506;2023-04-23T11:09:46;98802.88;;;21.19;28.12
62402;BME280;48440;51.224;22.506;2023-04-23T11:14:52;98793.59;;;21.03;27.89
62402;BME280;48440;51.224;22.506;2023-04-23T11:22:52;98787.13;;;20.99;27.90
62402;BME280;48440;51.224;22.506;2023-04-23T11:25:24;98782.56;;;21.03;27.95
62402;BME280;48440;51.224;22.506;2023-04-23T11:27:53;98780.94;;;21.02;27.54
62402;BME280;48440;51.224;22.506;2023-04-23T11:30:29;98784.56;;;20.94;28.04
62402;BME280;48440;51.224;22.506;2023-04-23T11:32:56;98779.66;;;20.79;28.16
62402;BME280;48440;51.224;22.506;2023-04-23T11:35:23;98775.06;;;20.83;29.14
62402;BME280;48440;51.224;22.506;2023-04-23T11:37:53;98769.81;;;20.90;30.06
62402;BME280;48440;51.224;22.506;2023-04-23T11:40:19;98762.84;;;20.92;30.80
62402;BME280;48440;51.224;22.506;2023-04-23T11:42:50;98774.53;;;20.89;29.36
62402;BME280;48440;51.224;22.506;2023-04-23T11:45:23;98761.81;;;20.76;28.54
62402;BME280;48440;51.224;22.506;2023-04-23T11:47:49;98764.53;;;20.55;28.27
62402;BME280;48440;51.224;22.506;2023-04-23T11:50:19;98761.91;;;20.59;29.08
62402;BME280;48440;51.224;22.506;2023-04-23T11:52:45;98767.56;;;20.62;29.13
62402;BME280;48440;51.224;22.506;2023-04-23T11:55:10;98761.41;;;20.65;29.25
62402;BME280;48440;51.224;22.506;2023-04-23T11:57:44;98762.72;;;20.59;28.17
62402;BME280;48440;51.224;22.506;2023-04-23T12:00:21;98759.00;;;20.55;27.64
62402;BME280;48440;51.224;22.506;2023-04-23T12:02:55;98742.16;;;20.57;29.34
62402;BME280;48440;51.224;22.506;2023-04-23T12:05:22;98764.41;;;20.52;28.01
62402;BME280;48440;51.224;22.506;2023-04-23T12:07:51;98752.78;;;20.46;28.29
62402;BME280;48440;51.224;22.506;2023-04-23T12:10:17;98758.75;;;20.48;28.90
62402;BME280;48440;51.224;22.506;2023-04-23T12:12:43;98749.94;;;20.55;30.36
62402;BME280;48440;51.224;22.506;2023-04-23T12:15:09;98747.19;;;20.55;29.88
62402;BME280;48440;51.224;22.506;2023-04-23T12:17:34;98741.47;;;20.60;30.24
62402;BME280;48440;51.224;22.506;2023-04-23T12:20:04;98739.38;;;20.57;29.50
62402;BME280;48440;51.224;22.506;2023-04-23T12:22:31;98746.78;;;20.44;28.76
62402;BME280;48440;51.224;22.506;2023-04-23T12:24:56;98743.88;;;20.41;29.91
62402;BME280;48440;51.224;22.506;2023-04-23T12:27:23;98730.09;;;20.41;30.14
62402;BME280;48440;51.224;22.506;2023-04-23T12:30:09;98729.91;;;20.46;30.32
62402;BME280;48440;51.224;22.506;2023-04-23T12:32:36;98734.31;;;20.38;29.42
62402;BME280;48440;51.224;22.506;2023-04-23T12:35:02;98716.00;;;20.33;29.82
62402;BME280;48440;51.224;22.506;2023-04-23T12:37:34;98724.94;;;20.30;30.42
62402;BME280;48440;51.224;22.506;2023-04-23T12:40:00;98716.50;;;20.27;30.26
62402;BME280;48440;51.224;22.506;2023-04-23T12:42:27;98717.31;;;20.27;31.06
62402;BME280;48440;51.224;22.506;2023-04-23T12:44:52;98726.28;;;20.24;30.79
62402;BME280;48440;51.224;22.506;2023-04-23T12:47:19;98718.69;;;20.21;29.99
62402;BME280;48440;51.224;22.506;2023-04-23T12:49:48;98720.81;;;20.16;29.69
62402;BME280;48440;51.224;22.506;2023-04-23T12:52:17;98712.88;;;20.14;31.06
62402;BME280;48440;51.224;22.506;2023-04-23T12:54:42;98705.28;;;20.11;30.26
62402;BME280;48440;51.224;22.506;2023-04-23T12:57:16;98713.84;;;20.10;30.02
62402;BME280;48440;51.224;22.506;2023-04-23T12:59:45;98710.63;;;20.08;30.09
62402;BME280;48440;51.224;22.506;2023-04-23T13:02:11;98706.41;;;20.10;29.53
62402;BME280;48440;51.224;22.506;2023-04-23T13:04:36;98706.41;;;20.10;29.95
62402;BME280;48440;51.224;22.506;2023-04-23T13:07:02;98710.13;;;20.14;29.90
62402;BME280;48440;51.224;22.506;2023-04-23T13:09:28;98702.38;;;20.08;29.76
62402;BME280;48440;51.224;22.506;2023-04-23T13:11:54;98696.06;;;20.07;29.81
62402;BME280;48440;51.224;22.506;2023-04-23T13:14:20;98692.66;;;20.02;29.52
62402;BME280;48440;51.224;22.506;2023-04-23T13:16:45;98686.34;;;20.01;29.87
62402;BME280;48440;51.224;22.506;2023-04-23T13:19:11;98682.81;;;20.01;30.38
62402;BME280;48440;51.224;22.506;2023-04-23T13:21:37;98680.06;;;20.01;30.51
62402;BME280;48440;51.224;22.506;2023-04-23T13:24:03;98666.16;;;19.97;30.57
62402;BME280;48440;51.224;22.506;2023-04-23T13:26:28;98673.75;;;20.00;30.54
62402;BME280;48440;51.224;22.506;2023-04-23T13:28:59;98673.94;;;19.95;29.90
62402;BME280;48440;51.224;22.506;2023-04-23T13:31:25;98669.56;;;19.94;29.79
62402;BME280;48440;51.224;22.506;2023-04-23T13:33:51;98672.50;;;19.89;30.06
62402;BME280;48440;51.224;22.506;2023-04-23T13:36:17;98672.50;;;19.89;30.57